»·PEaware :: N512PC KSNA-KBUR

N512PC :: KSNA-KBUR

FLIGHT INFORMATION

Flight Status: Arrived
Operator: Privately registered:
United States
More flights under this callsign
Pilot: Jacob V. (20481)
Aircraft: BEECH AIRCRAFT BARON
(BE58)
More flights by this aircraft type
Origin: KSNA John Wayne-Orange Co
United States
Destination: KBUR Bob Hope-Burbank
United States
More flights between these airports :: More routes between these airports
Route: SLI V23 POPPR SMO125R SMO SMO311R SILEX
File this flight plan on PilotEdge
Remarks: I-3 attempt
Altitude:
(Current/Filed)
4,000ft
Speed:
(Current/Filed)
160kts
Departed: 02-Oct-18 08:47 PM
Arrived: 02-Oct-18 09:19 PM
Distance/Time
Traveled:
40nm/0:32
Distance/Time
To Go:
Arrived

Flight Plot

Page will automatically refresh every two minutes.


Map Options




Map Legend


Flown Route
Filed Route
Departure Airport
Arrival Airport
Navaid (VOR, NDB)
Fix

Horizontal Profiles

Position Reports

Time Latitude Longitude Heading Altitude Ground
Speed
02-Oct-18 20:34 33.671596 -117.867559 208 49ft 0kts
02-Oct-18 20:35 33.671596 -117.867559 208 49ft 0kts
02-Oct-18 20:36 33.671596 -117.867559 208 49ft 0kts
02-Oct-18 20:37 33.671596 -117.867559 208 49ft 0kts
02-Oct-18 20:38 33.671596 -117.867559 208 49ft 0kts
02-Oct-18 20:39 33.671596 -117.867559 208 49ft 0kts
02-Oct-18 20:40 33.671596 -117.867559 208 49ft 0kts
02-Oct-18 20:41 33.671596 -117.867559 208 49ft 0kts
02-Oct-18 20:42 33.672636 -117.867801 32 49ft 17kts
02-Oct-18 20:43 33.676151 -117.865802 27 47ft 16kts
02-Oct-18 20:44 33.679908 -117.863550 324 39ft 7kts
02-Oct-18 20:45 33.679956 -117.863624 303 39ft 0kts
02-Oct-18 20:46 33.679956 -117.863624 303 39ft 0kts
02-Oct-18 20:47 33.679956 -117.863624 303 39ft 0kts
02-Oct-18 20:48 33.679979 -117.864264 206 39ft 0kts
02-Oct-18 20:49 33.662743 -117.877495 233 686ft 113kts
02-Oct-18 20:50 33.642037 -117.912277 232 1980ft 130kts
02-Oct-18 20:51 33.631018 -117.950221 309 2922ft 135kts
02-Oct-18 20:52 33.659485 -117.973976 321 3986ft 129kts
02-Oct-18 20:53 33.692072 -118.000993 332 3992ft 167kts
02-Oct-18 20:54 33.732356 -118.024766 332 3988ft 176kts
02-Oct-18 20:55 33.773661 -118.049043 333 3987ft 177kts
02-Oct-18 20:56 33.797737 -118.090073 283 3987ft 176kts
02-Oct-18 20:57 33.807858 -118.142566 284 3987ft 176kts
02-Oct-18 20:58 33.819485 -118.194447 285 3986ft 175kts
02-Oct-18 20:59 33.834459 -118.244592 311 3986ft 175kts
02-Oct-18 21:00 33.851367 -118.295320 305 3985ft 175kts
02-Oct-18 21:01 33.886257 -118.332667 315 3986ft 175kts
02-Oct-18 21:02 33.922130 -118.367102 321 3986ft 175kts
02-Oct-18 21:03 33.956744 -118.401364 320 3986ft 173kts
02-Oct-18 21:04 33.991773 -118.437483 321 3987ft 177kts
02-Oct-18 21:05 34.029434 -118.472662 326 3985ft 174kts
02-Oct-18 21:06 34.069177 -118.505006 326 3986ft 172kts
02-Oct-18 21:07 34.097239 -118.549285 301 3983ft 161kts
02-Oct-18 21:08 34.118416 -118.593190 301 3988ft 160kts
02-Oct-18 21:09 34.141060 -118.640033 301 3988ft 163kts
02-Oct-18 21:10 34.163218 -118.684703 300 3986ft 160kts
02-Oct-18 21:11 34.196192 -118.714854 11 3985ft 158kts
02-Oct-18 21:12 34.224515 -118.678622 68 3984ft 156kts
02-Oct-18 21:13 34.214433 -118.634993 120 3987ft 153kts
02-Oct-18 21:14 34.198839 -118.597950 94 3983ft 146kts
02-Oct-18 21:15 34.199829 -118.556724 92 3799ft 129kts
02-Oct-18 21:16 34.199572 -118.517915 93 3241ft 136kts
02-Oct-18 21:17 34.199080 -118.478021 93 2588ft 119kts
02-Oct-18 21:18 34.198346 -118.439766 87 2009ft 127kts
02-Oct-18 21:19 34.198290 -118.400713 90 1416ft 116kts
02-Oct-18 21:20 34.197963 -118.371549 90 790ft 107kts
02-Oct-18 21:21 34.196964 -118.357995 181 708ft 2kts
02-Oct-18 21:22 34.196320 -118.357983 155 707ft 16kts
02-Oct-18 21:23 34.198277 -118.399619 89 1393ft 115kts
02-Oct-18 21:24 34.198037 -118.378176 89 919ft 107kts
02-Oct-18 21:25 34.196183 -118.357533 86 706ft 0kts

Navigation Log

Ident Type
Flight plan parsing failed, navigation log unavailable